sensor_id;sensor_type;location;lat;lon;timestamp;pressure;altitude;pressure_sealevel;temperature;humidity
46366;BME280;72328;49.570;8.722;2024-03-02T00:01:11;98520.03;;;10.10;48.83
46366;BME280;72328;49.570;8.722;2024-03-02T00:05:20;98533.16;;;10.07;48.86
46366;BME280;72328;49.570;8.722;2024-03-02T00:09:21;98525.09;;;10.01;48.84
46366;BME280;72328;49.570;8.722;2024-03-02T00:13:21;98516.72;;;9.99;49.04
46366;BME280;72328;49.570;8.722;2024-03-02T00:17:24;98509.97;;;9.98;48.76
46366;BME280;72328;49.570;8.722;2024-03-02T00:21:26;98500.44;;;9.89;48.76
46366;BME280;72328;49.570;8.722;2024-03-02T00:29:43;98501.13;;;9.91;49.10
46366;BME280;72328;49.570;8.722;2024-03-02T00:33:45;98502.88;;;9.90;48.83
46366;BME280;72328;49.570;8.722;2024-03-02T00:37:46;98498.81;;;9.88;48.59
46366;BME280;72328;49.570;8.722;2024-03-02T00:41:47;98499.50;;;9.90;48.97
46366;BME280;72328;49.570;8.722;2024-03-02T00:45:48;98499.06;;;9.85;48.94
46366;BME280;72328;49.570;8.722;2024-03-02T00:49:48;98506.09;;;9.83;48.71
46366;BME280;72328;49.570;8.722;2024-03-02T00:53:51;98500.13;;;9.82;48.71
46366;BME280;72328;49.570;8.722;2024-03-02T00:57:52;98504.47;;;9.82;48.53
46366;BME280;72328;49.570;8.722;2024-03-02T01:01:53;98503.78;;;9.80;49.01
46366;BME280;72328;49.570;8.722;2024-03-02T01:05:57;98501.19;;;9.80;48.76
46366;BME280;72328;49.570;8.722;2024-03-02T01:09:58;98506.34;;;9.80;49.01
46366;BME280;72328;49.570;8.722;2024-03-02T01:13:59;98503.09;;;9.78;48.91
46366;BME280;72328;49.570;8.722;2024-03-02T01:17:59;98509.31;;;9.75;49.00
46366;BME280;72328;49.570;8.722;2024-03-02T01:22:00;98518.09;;;9.73;48.69
46366;BME280;72328;49.570;8.722;2024-03-02T01:26:01;98526.03;;;9.70;49.14
46366;BME280;72328;49.570;8.722;2024-03-02T01:30:01;98522.13;;;9.66;48.85
46366;BME280;72328;49.570;8.722;2024-03-02T01:34:02;98525.75;;;9.63;48.73
46366;BME280;72328;49.570;8.722;2024-03-02T01:38:06;98519.22;;;9.59;48.70
46366;BME280;72328;49.570;8.722;2024-03-02T01:42:07;98510.53;;;9.51;48.82
46366;BME280;72328;49.570;8.722;2024-03-02T01:46:07;98513.22;;;9.49;48.97
46366;BME280;72328;49.570;8.722;2024-03-02T01:50:08;98503.19;;;9.46;49.20
46366;BME280;72328;49.570;8.722;2024-03-02T01:54:11;98497.47;;;9.43;48.94
46366;BME280;72328;49.570;8.722;2024-03-02T01:58:12;98492.63;;;9.40;48.82
46366;BME280;72328;49.570;8.722;2024-03-02T02:02:14;98491.47;;;9.33;49.25
46366;BME280;72328;49.570;8.722;2024-03-02T02:06:15;98483.88;;;9.31;49.00
46366;BME280;72328;49.570;8.722;2024-03-02T02:10:16;98481.59;;;9.28;49.05
46366;BME280;72328;49.570;8.722;2024-03-02T02:14:16;98474.13;;;9.25;48.93
46366;BME280;72328;49.570;8.722;2024-03-02T02:18:17;98465.84;;;9.22;48.95
46366;BME280;72328;49.570;8.722;2024-03-02T02:22:18;98468.69;;;9.19;48.85
46366;BME280;72328;49.570;8.722;2024-03-02T02:26:18;98471.38;;;9.17;48.92
46366;BME280;72328;49.570;8.722;2024-03-02T02:30:20;98468.09;;;9.15;48.65
46366;BME280;72328;49.570;8.722;2024-03-02T02:34:21;98470.00;;;9.13;48.71
46366;BME280;72328;49.570;8.722;2024-03-02T02:38:22;98466.97;;;9.08;48.72
46366;BME280;72328;49.570;8.722;2024-03-02T02:42:25;98466.41;;;9.05;48.81
46366;BME280;72328;49.570;8.722;2024-03-02T02:46:26;98473.44;;;9.03;48.85
46366;BME280;72328;49.570;8.722;2024-03-02T02:50:27;98466.09;;;8.98;48.75
46366;BME280;72328;49.570;8.722;2024-03-02T02:54:27;98458.91;;;8.92;48.86
46366;BME280;72328;49.570;8.722;2024-03-02T02:58:28;98463.34;;;8.90;48.92
46366;BME280;72328;49.570;8.722;2024-03-02T03:02:29;98449.13;;;8.86;48.83
46366;BME280;72328;49.570;8.722;2024-03-02T03:06:29;98447.28;;;8.77;49.14
46366;BME280;72328;49.570;8.722;2024-03-02T03:10:30;98445.22;;;8.71;49.12
46366;BME280;72328;49.570;8.722;2024-03-02T03:14:30;98455.59;;;8.70;48.95
46366;BME280;72328;49.570;8.722;2024-03-02T03:18:31;98446.66;;;8.64;49.02
46366;BME280;72328;49.570;8.722;2024-03-02T03:22:32;98440.03;;;8.62;48.81
46366;BME280;72328;49.570;8.722;2024-03-02T03:26:36;98449.56;;;8.60;48.67
46366;BME280;72328;49.570;8.722;2024-03-02T03:30:37;98444.59;;;8.58;48.93
46366;BME280;72328;49.570;8.722;2024-03-02T03:34:38;98447.50;;;8.54;48.77
46366;BME280;72328;49.570;8.722;2024-03-02T03:38:39;98444.38;;;8.50;48.66
46366;BME280;72328;49.570;8.722;2024-03-02T03:42:39;98448.00;;;8.48;49.01
46366;BME280;72328;49.570;8.722;2024-03-02T03:46:40;98441.34;;;8.45;48.92
46366;BME280;72328;49.570;8.722;2024-03-02T03:50:41;98442.66;;;8.40;48.69
46366;BME280;72328;49.570;8.722;2024-03-02T03:54:41;98432.75;;;8.35;48.99
46366;BME280;72328;49.570;8.722;2024-03-02T03:58:43;98438.25;;;8.31;48.86
46366;BME280;72328;49.570;8.722;2024-03-02T04:02:44;98442.09;;;8.25;49.10
46366;BME280;72328;49.570;8.722;2024-03-02T04:06:44;98438.84;;;8.23;48.95
46366;BME280;72328;49.570;8.722;2024-03-02T04:10:45;98439.19;;;8.19;48.73
46366;BME280;72328;49.570;8.722;2024-03-02T04:14:46;98443.59;;;8.17;48.70
46366;BME280;72328;49.570;8.722;2024-03-02T04:18:46;98451.41;;;8.15;48.85
46366;BME280;72328;49.570;8.722;2024-03-02T04:22:47;98454.22;;;8.12;48.73
46366;BME280;72328;49.570;8.722;2024-03-02T04:26:48;98451.09;;;8.09;49.03
46366;BME280;72328;49.570;8.722;2024-03-02T04:30:48;98455.28;;;8.10;49.13
46366;BME280;72328;49.570;8.722;2024-03-02T04:34:49;98440.00;;;8.08;49.22
46366;BME280;72328;49.570;8.722;2024-03-02T04:38:49;98442.56;;;8.08;49.02
46366;BME280;72328;49.570;8.722;2024-03-02T04:42:50;98440.38;;;8.04;49.28
46366;BME280;72328;49.570;8.722;2024-03-02T04:46:51;98446.91;;;7.97;49.34
46366;BME280;72328;49.570;8.722;2024-03-02T04:50:51;98440.28;;;7.94;49.66
46366;BME280;72328;49.570;8.722;2024-03-02T04:54:52;98448.88;;;7.93;49.39
46366;BME280;72328;49.570;8.722;2024-03-02T04:59:11;98453.09;;;7.94;49.77
46366;BME280;72328;49.570;8.722;2024-03-02T05:03:12;98447.84;;;7.96;49.50
46366;BME280;72328;49.570;8.722;2024-03-02T05:07:14;98457.03;;;7.98;49.72
46366;BME280;72328;49.570;8.722;2024-03-02T05:11:15;98458.78;;;7.98;49.58
46366;BME280;72328;49.570;8.722;2024-03-02T05:15:34;98467.28;;;7.98;49.56
46366;BME280;72328;49.570;8.722;2024-03-02T05:19:35;98472.41;;;7.98;49.42
46366;BME280;72328;49.570;8.722;2024-03-02T05:23:35;98475.69;;;8.00;49.56
46366;BME280;72328;49.570;8.722;2024-03-02T05:27:37;98475.06;;;7.97;49.57
46366;BME280;72328;49.570;8.722;2024-03-02T05:31:38;98481.28;;;7.94;49.58
46366;BME280;72328;49.570;8.722;2024-03-02T05:35:38;98487.19;;;7.95;49.39
46366;BME280;72328;49.570;8.722;2024-03-02T05:39:40;98483.13;;;7.92;49.25
46366;BME280;72328;49.570;8.722;2024-03-02T05:43:40;98477.19;;;7.81;49.76
46366;BME280;72328;49.570;8.722;2024-03-02T05:47:41;98487.31;;;7.82;49.54
46366;BME280;72328;49.570;8.722;2024-03-02T05:51:42;98477.31;;;7.68;49.72
46366;BME280;72328;49.570;8.722;2024-03-02T05:55:42;98487.22;;;7.73;49.97
46366;BME280;72328;49.570;8.722;2024-03-02T05:59:44;98496.06;;;7.69;49.87
46366;BME280;72328;49.570;8.722;2024-03-02T06:03:44;98489.75;;;7.62;49.97
46366;BME280;72328;49.570;8.722;2024-03-02T06:07:45;98489.41;;;7.66;49.81
46366;BME280;72328;49.570;8.722;2024-03-02T06:11:46;98483.13;;;7.59;49.92
46366;BME280;72328;49.570;8.722;2024-03-02T06:15:46;98487.09;;;7.63;49.98
46366;BME280;72328;49.570;8.722;2024-03-02T06:19:47;98481.97;;;7.63;49.82
46366;BME280;72328;49.570;8.722;2024-03-02T06:23:48;98487.41;;;7.59;49.90
46366;BME280;72328;49.570;8.722;2024-03-02T06:27:48;98495.81;;;7.61;49.93
46366;BME280;72328;49.570;8.722;2024-03-02T06:31:49;98503.72;;;7.58;49.70
46366;BME280;72328;49.570;8.722;2024-03-02T06:35:50;98506.19;;;7.59;49.77
46366;BME280;72328;49.570;8.722;2024-03-02T06:39:50;98509.53;;;7.60;50.25
46366;BME280;72328;49.570;8.722;2024-03-02T06:43:51;98504.19;;;7.63;50.03
46366;BME280;72328;49.570;8.722;2024-03-02T06:47:59;98509.78;;;7.68;50.00
46366;BME280;72328;49.570;8.722;2024-03-02T06:52:02;98519.09;;;7.69;50.02
46366;BME280;72328;49.570;8.722;2024-03-02T06:56:04;98517.72;;;7.76;50.37
46366;BME280;72328;49.570;8.722;2024-03-02T07:00:05;98514.34;;;7.75;50.10
46366;BME280;72328;49.570;8.722;2024-03-02T07:04:09;98512.59;;;7.76;50.27
46366;BME280;72328;49.570;8.722;2024-03-02T07:08:09;98510.03;;;7.76;50.47
46366;BME280;72328;49.570;8.722;2024-03-02T07:12:10;98508.28;;;7.76;50.49
46366;BME280;72328;49.570;8.722;2024-03-02T07:16:11;98520.72;;;7.81;50.81
46366;BME280;72328;49.570;8.722;2024-03-02T07:20:33;98517.38;;;7.80;50.64
46366;BME280;72328;49.570;8.722;2024-03-02T07:25:00;98515.75;;;7.79;51.04
46366;BME280;72328;49.570;8.722;2024-03-02T07:29:01;98524.38;;;7.89;51.02
46366;BME280;72328;49.570;8.722;2024-03-02T07:33:02;98529.81;;;7.96;51.14
46366;BME280;72328;49.570;8.722;2024-03-02T07:37:03;98526.00;;;8.01;51.08
46366;BME280;72328;49.570;8.722;2024-03-02T07:41:04;98523.06;;;8.06;51.05
46366;BME280;72328;49.570;8.722;2024-03-02T07:45:05;98523.44;;;8.12;51.11
46366;BME280;72328;49.570;8.722;2024-03-02T07:49:06;98528.19;;;8.17;51.26
46366;BME280;72328;49.570;8.722;2024-03-02T07:53:08;98538.25;;;8.20;51.45
46366;BME280;72328;49.570;8.722;2024-03-02T07:57:09;98540.91;;;8.40;52.27
46366;BME280;72328;49.570;8.722;2024-03-02T08:01:11;98544.13;;;8.64;52.74
46366;BME280;72328;49.570;8.722;2024-03-02T08:05:11;98545.50;;;9.31;53.59
46366;BME280;72328;49.570;8.722;2024-03-02T08:09:12;98546.56;;;10.50;56.56
46366;BME280;72328;49.570;8.722;2024-03-02T08:13:13;98531.47;;;11.61;57.24
46366;BME280;72328;49.570;8.722;2024-03-02T08:17:14;98525.63;;;13.90;56.37
46366;BME280;72328;49.570;8.722;2024-03-02T08:21:15;98534.97;;;14.91;55.44
46366;BME280;72328;49.570;8.722;2024-03-02T08:25:16;98537.63;;;15.39;55.06
46366;BME280;72328;49.570;8.722;2024-03-02T08:29:17;98541.25;;;16.63;54.87
46366;BME280;72328;49.570;8.722;2024-03-02T08:33:17;98540.16;;;16.80;53.88
46366;BME280;72328;49.570;8.722;2024-03-02T08:37:18;98531.13;;;16.99;53.50
46366;BME280;72328;49.570;8.722;2024-03-02T08:41:19;98544.88;;;18.76;53.87
46366;BME280;72328;49.570;8.722;2024-03-02T08:45:20;98533.25;;;20.45;52.39
46366;BME280;72328;49.570;8.722;2024-03-02T08:49:21;98530.22;;;20.08;52.00
46366;BME280;72328;49.570;8.722;2024-03-02T08:53:21;98530.88;;;19.89;53.33
46366;BME280;72328;49.570;8.722;2024-03-02T08:57:22;98524.69;;;19.41;54.03
46366;BME280;72328;49.570;8.722;2024-03-02T09:01:23;98525.28;;;19.64;55.40
46366;BME280;72328;49.570;8.722;2024-03-02T09:05:24;98532.31;;;19.64;55.67
46366;BME280;72328;49.570;8.722;2024-03-02T09:09:24;98521.25;;;19.41;55.81
46366;BME280;72328;49.570;8.722;2024-03-02T09:13:25;98520.63;;;19.18;56.12
46366;BME280;72328;49.570;8.722;2024-03-02T09:17:26;98513.31;;;19.07;57.28
46366;BME280;72328;49.570;8.722;2024-03-02T09:21:26;98513.56;;;19.33;58.63
46366;BME280;72328;49.570;8.722;2024-03-02T09:25:27;98511.84;;;19.67;59.23
46366;BME280;72328;49.570;8.722;2024-03-02T09:29:28;98514.84;;;20.26;59.68
46366;BME280;72328;49.570;8.722;2024-03-02T09:33:29;98513.97;;;21.19;58.92
46366;BME280;72328;49.570;8.722;2024-03-02T09:37:30;98507.13;;;21.96;58.60
46366;BME280;72328;49.570;8.722;2024-03-02T09:41:32;98513.16;;;23.04;59.07
46366;BME280;72328;49.570;8.722;2024-03-02T09:45:33;98509.50;;;23.85;58.25
46366;BME280;72328;49.570;8.722;2024-03-02T09:49:34;98504.31;;;24.57;58.12
46366;BME280;72328;49.570;8.722;2024-03-02T09:53:35;98500.75;;;25.11;57.70
46366;BME280;72328;49.570;8.722;2024-03-02T09:57:36;98497.63;;;25.43;57.39
46366;BME280;72328;49.570;8.722;2024-03-02T10:01:37;98501.88;;;25.67;57.20
46366;BME280;72328;49.570;8.722;2024-03-02T10:05:38;98496.16;;;25.70;55.60
46366;BME280;72328;49.570;8.722;2024-03-02T10:09:39;98499.03;;;26.03;54.82
46366;BME280;72328;49.570;8.722;2024-03-02T10:13:40;98490.72;;;27.02;52.73
46366;BME280;72328;49.570;8.722;2024-03-02T10:17:41;98497.75;;;26.96;52.21
46366;BME280;72328;49.570;8.722;2024-03-02T10:21:42;98487.34;;;26.50;53.48
46366;BME280;72328;49.570;8.722;2024-03-02T10:25:43;98492.31;;;26.35;54.00
46366;BME280;72328;49.570;8.722;2024-03-02T10:29:46;98483.03;;;26.33;54.84
46366;BME280;72328;49.570;8.722;2024-03-02T10:33:47;98478.25;;;26.18;54.84
46366;BME280;72328;49.570;8.722;2024-03-02T10:37:48;98466.34;;;26.04;54.68
46366;BME280;72328;49.570;8.722;2024-03-02T10:41:49;98468.50;;;26.19;54.66
46366;BME280;72328;49.570;8.722;2024-03-02T10:45:50;98460.41;;;26.76;54.19
46366;BME280;72328;49.570;8.722;2024-03-02T10:49:51;98462.53;;;27.73;52.28
46366;BME280;72328;49.570;8.722;2024-03-02T10:53:53;98457.41;;;28.64;49.12
46366;BME280;72328;49.570;8.722;2024-03-02T10:57:54;98450.56;;;28.47;47.48
46366;BME280;72328;49.570;8.722;2024-03-02T11:01:58;98448.13;;;27.64;48.45
46366;BME280;72328;49.570;8.722;2024-03-02T11:05:59;98440.72;;;26.84;49.25
46366;BME280;72328;49.570;8.722;2024-03-02T11:10:01;98443.03;;;26.52;49.54
46366;BME280;72328;49.570;8.722;2024-03-02T11:14:13;98452.47;;;26.09;49.47
46366;BME280;72328;49.570;8.722;2024-03-02T11:18:14;98438.97;;;25.59;49.59
46366;BME280;72328;49.570;8.722;2024-03-02T11:22:15;98434.16;;;25.45;49.78
46366;BME280;72328;49.570;8.722;2024-03-02T11:26:20;98437.34;;;25.35;49.54
46366;BME280;72328;49.570;8.722;2024-03-02T11:34:35;98422.31;;;25.70;47.97
46366;BME280;72328;49.570;8.722;2024-03-02T11:38:36;98423.22;;;26.10;45.87
46366;BME280;72328;49.570;8.722;2024-03-02T11:42:37;98420.19;;;26.58;44.66
46366;BME280;72328;49.570;8.722;2024-03-02T11:46:41;98397.78;;;26.60;44.13
46366;BME280;72328;49.570;8.722;2024-03-02T11:50:49;98393.97;;;26.00;45.24
46366;BME280;72328;49.570;8.722;2024-03-02T11:54:50;98399.19;;;25.61;45.49
46366;BME280;72328;49.570;8.722;2024-03-02T11:58:53;98387.91;;;25.19;45.44
46366;BME280;72328;49.570;8.722;2024-03-02T12:07:05;98382.06;;;24.94;45.78
46366;BME280;72328;49.570;8.722;2024-03-02T12:11:06;98373.31;;;24.82;45.95
46366;BME280;72328;49.570;8.722;2024-03-02T12:15:07;98378.38;;;24.54;46.01
46366;BME280;72328;49.570;8.722;2024-03-02T12:19:08;98366.16;;;24.30;45.85
46366;BME280;72328;49.570;8.722;2024-03-02T12:23:08;98367.03;;;24.13;45.43
46366;BME280;72328;49.570;8.722;2024-03-02T12:27:09;98348.75;;;24.00;45.06
46366;BME280;72328;49.570;8.722;2024-03-02T12:31:09;98347.75;;;23.83;44.67
46366;BME280;72328;49.570;8.722;2024-03-02T12:35:11;98341.25;;;23.67;44.73
46366;BME280;72328;49.570;8.722;2024-03-02T12:39:16;98339.19;;;23.51;44.34
46366;BME280;72328;49.570;8.722;2024-03-02T12:43:17;98328.25;;;23.36;44.06
46366;BME280;72328;49.570;8.722;2024-03-02T12:47:18;98335.63;;;23.28;43.96
46366;BME280;72328;49.570;8.722;2024-03-02T12:51:18;98341.53;;;23.17;43.69
46366;BME280;72328;49.570;8.722;2024-03-02T12:55:20;98333.59;;;23.05;43.84
46366;BME280;72328;49.570;8.722;2024-03-02T12:59:24;98327.19;;;22.95;43.57
46366;BME280;72328;49.570;8.722;2024-03-02T13:03:26;98330.53;;;22.84;42.65
46366;BME280;72328;49.570;8.722;2024-03-02T13:07:29;98326.88;;;22.60;42.38
46366;BME280;72328;49.570;8.722;2024-03-02T13:11:30;98330.84;;;22.45;42.74
46366;BME280;72328;49.570;8.722;2024-03-02T13:15:32;98321.63;;;22.29;42.18
46366;BME280;72328;49.570;8.722;2024-03-02T13:19:34;98319.38;;;22.02;42.22
46366;BME280;72328;49.570;8.722;2024-03-02T13:23:35;98319.09;;;21.66;42.24
46366;BME280;72328;49.570;8.722;2024-03-02T13:27:35;98311.13;;;21.41;42.48
46366;BME280;72328;49.570;8.722;2024-03-02T13:31:36;98319.00;;;21.28;42.24
46366;BME280;72328;49.570;8.722;2024-03-02T13:35:37;98310.38;;;21.15;42.63
46366;BME280;72328;49.570;8.722;2024-03-02T13:39:37;98322.28;;;21.04;41.73
46366;BME280;72328;49.570;8.722;2024-03-02T13:43:42;98315.03;;;20.93;42.56
46366;BME280;72328;49.570;8.722;2024-03-02T13:47:45;98304.53;;;20.87;42.54
46366;BME280;72328;49.570;8.722;2024-03-02T13:51:45;98292.47;;;20.86;42.72
46366;BME280;72328;49.570;8.722;2024-03-02T13:55:46;98288.84;;;20.87;43.00
46366;BME280;72328;49.570;8.722;2024-03-02T13:59:47;98291.50;;;20.93;42.74
46366;BME280;72328;49.570;8.722;2024-03-02T14:03:47;98291.06;;;20.96;43.17
46366;BME280;72328;49.570;8.722;2024-03-02T14:07:48;98289.28;;;20.97;43.20
46366;BME280;72328;49.570;8.722;2024-03-02T14:11:52;98288.25;;;21.04;43.64
46366;BME280;72328;49.570;8.722;2024-03-02T14:15:53;98286.22;;;21.19;43.46
46366;BME280;72328;49.570;8.722;2024-03-02T14:19:54;98285.97;;;21.27;42.99
46366;BME280;72328;49.570;8.722;2024-03-02T14:23:55;98275.31;;;21.22;42.73
46366;BME280;72328;49.570;8.722;2024-03-02T14:27:56;98276.91;;;21.23;43.10
46366;BME280;72328;49.570;8.722;2024-03-02T14:31:57;98270.66;;;21.24;43.25
46366;BME280;72328;49.570;8.722;2024-03-02T14:35:58;98263.22;;;21.28;43.20
46366;BME280;72328;49.570;8.722;2024-03-02T14:39:58;98257.56;;;21.31;43.32
46366;BME280;72328;49.570;8.722;2024-03-02T14:43:59;98251.31;;;21.32;42.87
46366;BME280;72328;49.570;8.722;2024-03-02T14:48:00;98257.94;;;21.34;42.80
46366;BME280;72328;49.570;8.722;2024-03-02T14:52:00;98256.31;;;21.40;42.94
46366;BME280;72328;49.570;8.722;2024-03-02T14:56:01;98252.50;;;21.42;43.06
46366;BME280;72328;49.570;8.722;2024-03-02T15:00:02;98242.19;;;21.47;43.39
46366;BME280;72328;49.570;8.722;2024-03-02T15:04:03;98239.88;;;21.64;44.10
46366;BME280;72328;49.570;8.722;2024-03-02T15:08:04;98232.81;;;22.08;44.08
46366;BME280;72328;49.570;8.722;2024-03-02T15:12:06;98225.88;;;22.51;43.26
46366;BME280;72328;49.570;8.722;2024-03-02T15:16:09;98214.97;;;22.72;43.03
46366;BME280;72328;49.570;8.722;2024-03-02T15:20:10;98221.97;;;22.78;43.04
46366;BME280;72328;49.570;8.722;2024-03-02T15:24:11;98223.22;;;22.76;42.62
46366;BME280;72328;49.570;8.722;2024-03-02T15:28:11;98222.53;;;22.62;41.58
46366;BME280;72328;49.570;8.722;2024-03-02T15:32:12;98211.06;;;22.32;41.21
46366;BME280;72328;49.570;8.722;2024-03-02T15:36:13;98210.66;;;22.04;41.27
46366;BME280;72328;49.570;8.722;2024-03-02T15:40:14;98215.25;;;21.78;41.00
46366;BME280;72328;49.570;8.722;2024-03-02T15:44:14;98201.69;;;21.50;41.04
46366;BME280;72328;49.570;8.722;2024-03-02T15:48:15;98211.25;;;21.25;40.94
46366;BME280;72328;49.570;8.722;2024-03-02T15:52:16;98211.72;;;21.02;41.07
46366;BME280;72328;49.570;8.722;2024-03-02T15:56:18;98217.38;;;20.86;40.91
46366;BME280;72328;49.570;8.722;2024-03-02T16:00:19;98206.75;;;20.68;41.12
46366;BME280;72328;49.570;8.722;2024-03-02T16:04:20;98206.75;;;20.55;41.01
46366;BME280;72328;49.570;8.722;2024-03-02T16:08:21;98208.59;;;20.42;40.93
46366;BME280;72328;49.570;8.722;2024-03-02T16:12:21;98208.81;;;20.27;40.90
46366;BME280;72328;49.570;8.722;2024-03-02T16:16:22;98207.41;;;20.12;40.93
46366;BME280;72328;49.570;8.722;2024-03-02T16:20:23;98197.31;;;19.96;40.96
46366;BME280;72328;49.570;8.722;2024-03-02T16:24:27;98203.88;;;19.79;40.97
46366;BME280;72328;49.570;8.722;2024-03-02T16:28:27;98205.66;;;19.59;40.90
46366;BME280;72328;49.570;8.722;2024-03-02T16:32:28;98209.19;;;19.38;40.92
46366;BME280;72328;49.570;8.722;2024-03-02T16:36:29;98204.69;;;19.19;40.93
46366;BME280;72328;49.570;8.722;2024-03-02T16:40:33;98201.41;;;19.04;41.06
46366;BME280;72328;49.570;8.722;2024-03-02T16:44:33;98204.34;;;18.88;41.26
46366;BME280;72328;49.570;8.722;2024-03-02T16:48:34;98203.22;;;18.70;40.92
46366;BME280;72328;49.570;8.722;2024-03-02T16:52:35;98197.50;;;18.53;41.02
46366;BME280;72328;49.570;8.722;2024-03-02T16:56:42;98199.38;;;18.38;41.03
46366;BME280;72328;49.570;8.722;2024-03-02T17:00:43;98205.66;;;18.23;41.04
46366;BME280;72328;49.570;8.722;2024-03-02T17:04:45;98204.34;;;18.12;41.23
46366;BME280;72328;49.570;8.722;2024-03-02T17:08:46;98208.09;;;18.03;41.19
46366;BME280;72328;49.570;8.722;2024-03-02T17:12:46;98205.19;;;17.92;41.14
46366;BME280;72328;49.570;8.722;2024-03-02T17:16:47;98204.84;;;17.80;41.40
46366;BME280;72328;49.570;8.722;2024-03-02T17:20:47;98211.56;;;17.68;41.27
46366;BME280;72328;49.570;8.722;2024-03-02T17:24:48;98206.56;;;17.52;41.24
46366;BME280;72328;49.570;8.722;2024-03-02T17:28:49;98197.66;;;17.40;41.25
46366;BME280;72328;49.570;8.722;2024-03-02T17:32:50;98209.94;;;17.32;41.43
46366;BME280;72328;49.570;8.722;2024-03-02T17:36:50;98204.38;;;17.20;41.39
46366;BME280;72328;49.570;8.722;2024-03-02T17:40:51;98198.47;;;17.12;41.30
46366;BME280;72328;49.570;8.722;2024-03-02T17:44:51;98201.97;;;17.04;41.42
46366;BME280;72328;49.570;8.722;2024-03-02T17:48:52;98204.03;;;16.94;41.71
46366;BME280;72328;49.570;8.722;2024-03-02T17:52:53;98207.72;;;16.85;41.66
46366;BME280;72328;49.570;8.722;2024-03-02T17:56:55;98199.03;;;16.78;41.36
46366;BME280;72328;49.570;8.722;2024-03-02T18:00:56;98201.69;;;16.70;41.53
46366;BME280;72328;49.570;8.722;2024-03-02T18:04:56;98191.56;;;16.61;41.54
46366;BME280;72328;49.570;8.722;2024-03-02T18:08:58;98190.84;;;16.52;41.59
46366;BME280;72328;49.570;8.722;2024-03-02T18:13:01;98189.97;;;16.45;41.85
46366;BME280;72328;49.570;8.722;2024-03-02T18:17:02;98176.28;;;16.29;41.99
46366;BME280;72328;49.570;8.722;2024-03-02T18:21:03;98177.53;;;16.18;42.16
46366;BME280;72328;49.570;8.722;2024-03-02T18:25:04;98157.34;;;16.06;42.28
46366;BME280;72328;49.570;8.722;2024-03-02T18:29:05;98146.22;;;15.97;42.59
46366;BME280;72328;49.570;8.722;2024-03-02T18:33:08;98144.78;;;15.95;42.68
46366;BME280;72328;49.570;8.722;2024-03-02T18:37:09;98141.38;;;15.94;43.22
46366;BME280;72328;49.570;8.722;2024-03-02T18:41:10;98150.53;;;16.05;43.40
46366;BME280;72328;49.570;8.722;2024-03-02T18:45:11;98145.81;;;16.08;43.83
46366;BME280;72328;49.570;8.722;2024-03-02T18:49:12;98120.56;;;16.17;43.80
46366;BME280;72328;49.570;8.722;2024-03-02T18:53:12;98121.28;;;16.25;43.89
46366;BME280;72328;49.570;8.722;2024-03-02T18:57:14;98107.25;;;16.34;43.95
46366;BME280;72328;49.570;8.722;2024-03-02T19:01:15;98104.75;;;16.41;43.95
46366;BME280;72328;49.570;8.722;2024-03-02T19:05:16;98130.81;;;16.47;43.76
46366;BME280;72328;49.570;8.722;2024-03-02T19:09:16;98145.25;;;16.50;43.89
46366;BME280;72328;49.570;8.722;2024-03-02T19:13:17;98135.94;;;16.55;44.01
46366;BME280;72328;49.570;8.722;2024-03-02T19:17:18;98126.97;;;16.58;44.17
46366;BME280;72328;49.570;8.722;2024-03-02T19:21:18;98121.41;;;16.61;43.99
46366;BME280;72328;49.570;8.722;2024-03-02T19:25:19;98127.44;;;16.61;43.99
46366;BME280;72328;49.570;8.722;2024-03-02T19:29:20;98130.28;;;16.66;44.08
46366;BME280;72328;49.570;8.722;2024-03-02T19:33:24;98140.97;;;16.71;43.96
46366;BME280;72328;49.570;8.722;2024-03-02T19:37:25;98153.56;;;16.74;44.02
46366;BME280;72328;49.570;8.722;2024-03-02T19:41:26;98169.16;;;16.74;43.99
46366;BME280;72328;49.570;8.722;2024-03-02T19:45:27;98173.09;;;16.70;44.44
46366;BME280;72328;49.570;8.722;2024-03-02T19:49:27;98180.72;;;16.72;44.08
46366;BME280;72328;49.570;8.722;2024-03-02T19:53:28;98176.63;;;16.77;44.11
46366;BME280;72328;49.570;8.722;2024-03-02T19:57:29;98180.28;;;16.83;43.78
46366;BME280;72328;49.570;8.722;2024-03-02T20:01:30;98188.56;;;16.86;43.69
46366;BME280;72328;49.570;8.722;2024-03-02T20:05:30;98194.91;;;16.84;43.65
46366;BME280;72328;49.570;8.722;2024-03-02T20:09:31;98176.78;;;16.76;43.86
46366;BME280;72328;49.570;8.722;2024-03-02T20:13:33;98147.50;;;16.67;44.06
46366;BME280;72328;49.570;8.722;2024-03-02T20:17:34;98146.59;;;16.60;43.89
46366;BME280;72328;49.570;8.722;2024-03-02T20:21:35;98134.50;;;16.53;44.17
46366;BME280;72328;49.570;8.722;2024-03-02T20:25:35;98123.19;;;16.46;44.16
46366;BME280;72328;49.570;8.722;2024-03-02T20:29:37;98115.94;;;16.41;44.19
46366;BME280;72328;49.570;8.722;2024-03-02T20:33:38;98121.16;;;16.41;43.86
46366;BME280;72328;49.570;8.722;2024-03-02T20:37:38;98113.53;;;16.40;44.18
46366;BME280;72328;49.570;8.722;2024-03-02T20:41:39;98104.00;;;16.32;44.35
46366;BME280;72328;49.570;8.722;2024-03-02T20:45:39;98106.97;;;16.29;44.08
46366;BME280;72328;49.570;8.722;2024-03-02T20:49:40;98097.47;;;16.22;44.37
46366;BME280;72328;49.570;8.722;2024-03-02T20:53:42;98084.66;;;16.20;44.44
46366;BME280;72328;49.570;8.722;2024-03-02T20:57:46;98064.88;;;16.19;44.52
46366;BME280;72328;49.570;8.722;2024-03-02T21:01:47;98059.41;;;16.14;44.49
46366;BME280;72328;49.570;8.722;2024-03-02T21:05:48;98063.28;;;16.18;44.63
46366;BME280;72328;49.570;8.722;2024-03-02T21:09:49;98064.88;;;16.19;44.56
46366;BME280;72328;49.570;8.722;2024-03-02T21:13:50;98064.88;;;16.19;44.51
46366;BME280;72328;49.570;8.722;2024-03-02T21:17:51;98063.28;;;16.18;44.67
46366;BME280;72328;49.570;8.722;2024-03-02T21:21:51;98070.06;;;16.19;44.70
46366;BME280;72328;49.570;8.722;2024-03-02T21:25:52;98073.28;;;16.21;44.56
46366;BME280;72328;49.570;8.722;2024-03-02T21:29:52;98071.69;;;16.20;44.44
46366;BME280;72328;49.570;8.722;2024-03-02T21:33:53;98080.09;;;16.22;44.52
46366;BME280;72328;49.570;8.722;2024-03-02T21:37:54;98097.47;;;16.22;44.56